Terminal Aerodrome Forecast
Issued by NWS

Current Version | Previous Version | Graphics & Text | Print | Product List | Glossary On
Versions: 1 2 3 4 5 6 7 8 9 10 11 12 13 14 15 16 17 18 19 20 21 22 23 24
000
FTUS41 KILN 210540
TAFLUK
TAF
KLUK 210540Z 2106/2206 00000KT P6SM SCT050 BKN100
     FM211200 20010KT P6SM SCT018 BKN030
      TEMPO 2112/2116 3SM BR BKN012 OVC030
     FM211800 21010KT P6SM BKN030
     FM212100 23009KT P6SM VCSH BKN040
     FM220200 27007KT P6SM SCT040=

USA.gov is the U.S. government's official web portal to all federal, state and local government web resources and services.